sensor_id;sensor_type;location;lat;lon;timestamp;pressure;altitude;pressure_sealevel;temperature
53512;BMP280;39392;52.832;13.816;2023-07-31T00:01:20;100885.66;;;24.74
53512;BMP280;39392;52.832;13.816;2023-07-31T00:03:47;100872.59;;;24.76
53512;BMP280;39392;52.832;13.816;2023-07-31T00:06:13;100870.94;;;24.75
53512;BMP280;39392;52.832;13.816;2023-07-31T00:08:40;100880.19;;;24.74
53512;BMP280;39392;52.832;13.816;2023-07-31T00:11:07;100875.34;;;24.76
53512;BMP280;39392;52.832;13.816;2023-07-31T00:13:33;100878.94;;;24.76
53512;BMP280;39392;52.832;13.816;2023-07-31T00:16:00;100878.94;;;24.76
53512;BMP280;39392;52.832;13.816;2023-07-31T00:18:26;100877.88;;;24.77
53512;BMP280;39392;52.832;13.816;2023-07-31T00:20:53;100885.91;;;24.79
53512;BMP280;39392;52.832;13.816;2023-07-31T00:23:19;100888.41;;;24.80
53512;BMP280;39392;52.832;13.816;2023-07-31T00:25:46;100878.69;;;24.78
53512;BMP280;39392;52.832;13.816;2023-07-31T00:28:12;100870.06;;;24.74
53512;BMP280;39392;52.832;13.816;2023-07-31T00:30:39;100880.81;;;24.76
53512;BMP280;39392;52.832;13.816;2023-07-31T00:33:06;100877.03;;;24.77
53512;BMP280;39392;52.832;13.816;2023-07-31T00:35:32;100874.28;;;24.77
53512;BMP280;39392;52.832;13.816;2023-07-31T00:37:59;100876.81;;;24.78
53512;BMP280;39392;52.832;13.816;2023-07-31T00:40:25;100859.31;;;24.79
53512;BMP280;39392;52.832;13.816;2023-07-31T00:42:52;100855.75;;;24.79
53512;BMP280;39392;52.832;13.816;2023-07-31T00:45:18;100851.28;;;24.78
53512;BMP280;39392;52.832;13.816;2023-07-31T00:47:45;100859.50;;;24.78
53512;BMP280;39392;52.832;13.816;2023-07-31T00:50:12;100859.50;;;24.78
53512;BMP280;39392;52.832;13.816;2023-07-31T00:52:39;100850.25;;;24.79
53512;BMP280;39392;52.832;13.816;2023-07-31T00:55:05;100853.84;;;24.79
53512;BMP280;39392;52.832;13.816;2023-07-31T00:57:32;100862.06;;;24.79
53512;BMP280;39392;52.832;13.816;2023-07-31T00:59:59;100855.53;;;24.80
53512;BMP280;39392;52.832;13.816;2023-07-31T01:02:26;100850.03;;;24.80
53512;BMP280;39392;52.832;13.816;2023-07-31T01:04:53;100848.13;;;24.81
53512;BMP280;39392;52.832;13.816;2023-07-31T01:07:26;100847.28;;;24.80
53512;BMP280;39392;52.832;13.816;2023-07-31T01:12:23;100844.34;;;24.82
53512;BMP280;39392;52.832;13.816;2023-07-31T01:15:24;100843.50;;;24.81
53512;BMP280;39392;52.832;13.816;2023-07-31T01:17:44;100841.59;;;24.82
53512;BMP280;39392;52.832;13.816;2023-07-31T01:20:12;100843.50;;;24.81
53512;BMP280;39392;52.832;13.816;2023-07-31T01:22:47;100840.53;;;24.83
53512;BMP280;39392;52.832;13.816;2023-07-31T01:27:55;100825.16;;;24.82
53512;BMP280;39392;52.832;13.816;2023-07-31T01:30:25;100826.81;;;24.83
53512;BMP280;39392;52.832;13.816;2023-07-31T01:32:53;100824.06;;;24.83
53512;BMP280;39392;52.832;13.816;2023-07-31T01:35:22;100816.91;;;24.82
53512;BMP280;39392;52.832;13.816;2023-07-31T01:37:48;100822.22;;;24.83
53512;BMP280;39392;52.832;13.816;2023-07-31T01:40:15;100819.47;;;24.83
53512;BMP280;39392;52.832;13.816;2023-07-31T01:42:41;100817.75;;;24.82
53512;BMP280;39392;52.832;13.816;2023-07-31T01:45:08;100821.56;;;24.81
53512;BMP280;39392;52.832;13.816;2023-07-31T01:47:35;100821.56;;;24.81
53512;BMP280;39392;52.832;13.816;2023-07-31T01:50:01;100815.00;;;24.82
53512;BMP280;39392;52.832;13.816;2023-07-31T01:52:28;100821.56;;;24.81
53512;BMP280;39392;52.832;13.816;2023-07-31T01:54:56;100826.81;;;24.83
53512;BMP280;39392;52.832;13.816;2023-07-31T01:57:22;100825.97;;;24.82
53512;BMP280;39392;52.832;13.816;2023-07-31T01:59:49;100825.97;;;24.82
53512;BMP280;39392;52.832;13.816;2023-07-31T02:02:16;100821.34;;;24.83
53512;BMP280;39392;52.832;13.816;2023-07-31T02:04:42;100816.06;;;24.81
53512;BMP280;39392;52.832;13.816;2023-07-31T02:07:09;100816.06;;;24.81
53512;BMP280;39392;52.832;13.816;2023-07-31T02:09:35;100821.34;;;24.83
53512;BMP280;39392;52.832;13.816;2023-07-31T02:12:04;100825.78;;;24.84
53512;BMP280;39392;52.832;13.816;2023-07-31T02:14:31;100818.59;;;24.83
53512;BMP280;39392;52.832;13.816;2023-07-31T02:16:58;100817.97;;;24.81
53512;BMP280;39392;52.832;13.816;2023-07-31T02:19:24;100820.53;;;24.76
53512;BMP280;39392;52.832;13.816;2023-07-31T02:21:51;100810.63;;;24.68
53512;BMP280;39392;52.832;13.816;2023-07-31T02:24:17;100811.66;;;24.60
53512;BMP280;39392;52.832;13.816;2023-07-31T02:26:44;100814.22;;;24.55
53512;BMP280;39392;52.832;13.816;2023-07-31T02:29:10;100812.09;;;24.51
53512;BMP280;39392;52.832;13.816;2023-07-31T02:31:37;100801.34;;;24.49
53512;BMP280;39392;52.832;13.816;2023-07-31T02:34:03;100805.78;;;24.44
53512;BMP280;39392;52.832;13.816;2023-07-31T02:36:30;100800.28;;;24.37
53512;BMP280;39392;52.832;13.816;2023-07-31T02:38:56;100799.63;;;24.35
53512;BMP280;39392;52.832;13.816;2023-07-31T02:41:23;100799.84;;;24.33
53512;BMP280;39392;52.832;13.816;2023-07-31T02:43:49;100803.63;;;24.32
53512;BMP280;39392;52.832;13.816;2023-07-31T02:46:16;100801.94;;;24.31
53512;BMP280;39392;52.832;13.816;2023-07-31T02:48:42;100802.34;;;24.28
53512;BMP280;39392;52.832;13.816;2023-07-31T02:51:09;100804.25;;;24.28
53512;BMP280;39392;52.832;13.816;2023-07-31T02:53:35;100793.13;;;24.29
53512;BMP280;39392;52.832;13.816;2023-07-31T02:56:02;100790.16;;;24.31
53512;BMP280;39392;52.832;13.816;2023-07-31T02:58:29;100790.81;;;24.33
53512;BMP280;39392;52.832;13.816;2023-07-31T03:00:55;100785.94;;;24.28
53512;BMP280;39392;52.832;13.816;2023-07-31T03:03:24;100774.56;;;24.25
53512;BMP280;39392;52.832;13.816;2023-07-31T03:05:50;100780.25;;;24.23
53512;BMP280;39392;52.832;13.816;2023-07-31T03:08:17;100780.25;;;24.23
53512;BMP280;39392;52.832;13.816;2023-07-31T03:10:44;100783.41;;;24.20
53512;BMP280;39392;52.832;13.816;2023-07-31T03:13:11;100786.34;;;24.19
53512;BMP280;39392;52.832;13.816;2023-07-31T03:15:37;100789.75;;;24.21
53512;BMP280;39392;52.832;13.816;2023-07-31T03:18:04;100785.94;;;24.22
53512;BMP280;39392;52.832;13.816;2023-07-31T03:20:31;100797.09;;;24.20
53512;BMP280;39392;52.832;13.816;2023-07-31T03:22:57;100797.09;;;24.20
53512;BMP280;39392;52.832;13.816;2023-07-31T03:25:24;100796.06;;;24.21
53512;BMP280;39392;52.832;13.816;2023-07-31T03:27:50;100792.66;;;24.19
53512;BMP280;39392;52.832;13.816;2023-07-31T03:30:17;100789.09;;;24.12
53512;BMP280;39392;52.832;13.816;2023-07-31T03:32:44;100792.25;;;24.09
53512;BMP280;39392;52.832;13.816;2023-07-31T03:35:11;100797.72;;;24.09
53512;BMP280;39392;52.832;13.816;2023-07-31T03:37:37;100785.72;;;24.10
53512;BMP280;39392;52.832;13.816;2023-07-31T03:40:04;100774.97;;;24.15
53512;BMP280;39392;52.832;13.816;2023-07-31T03:42:31;100782.16;;;24.16
53512;BMP280;39392;52.832;13.816;2023-07-31T03:44:57;100774.16;;;24.21
53512;BMP280;39392;52.832;13.816;2023-07-31T03:47:24;100764.25;;;24.27
53512;BMP280;39392;52.832;13.816;2023-07-31T03:49:51;100761.28;;;24.28
53512;BMP280;39392;52.832;13.816;2023-07-31T03:52:17;100758.34;;;24.23
53512;BMP280;39392;52.832;13.816;2023-07-31T03:54:44;100765.50;;;24.18
53512;BMP280;39392;52.832;13.816;2023-07-31T03:57:11;100752.88;;;24.17
53512;BMP280;39392;52.832;13.816;2023-07-31T03:59:37;100752.84;;;24.23
53512;BMP280;39392;52.832;13.816;2023-07-31T04:02:07;100753.28;;;24.27
53512;BMP280;39392;52.832;13.816;2023-07-31T04:04:33;100742.97;;;24.22
53512;BMP280;39392;52.832;13.816;2023-07-31T04:07:01;100749.06;;;24.18
53512;BMP280;39392;52.832;13.816;2023-07-31T04:09:28;100741.47;;;24.20
53512;BMP280;39392;52.832;13.816;2023-07-31T04:11:54;100741.06;;;24.23
53512;BMP280;39392;52.832;13.816;2023-07-31T04:14:21;100734.34;;;24.25
53512;BMP280;39392;52.832;13.816;2023-07-31T04:16:48;100728.63;;;24.27
53512;BMP280;39392;52.832;13.816;2023-07-31T04:19:15;100733.06;;;24.28
53512;BMP280;39392;52.832;13.816;2023-07-31T04:21:43;100736.03;;;24.33
53512;BMP280;39392;52.832;13.816;2023-07-31T04:24:09;100729.94;;;24.38
53512;BMP280;39392;52.832;13.816;2023-07-31T04:26:36;100733.06;;;24.41
53512;BMP280;39392;52.832;13.816;2023-07-31T04:29:03;100728.00;;;24.45
53512;BMP280;39392;52.832;13.816;2023-07-31T04:31:30;100725.91;;;24.47
53512;BMP280;39392;52.832;13.816;2023-07-31T04:33:57;100724.00;;;24.47
53512;BMP280;39392;52.832;13.816;2023-07-31T04:36:23;100717.28;;;24.50
53512;BMP280;39392;52.832;13.816;2023-07-31T04:38:50;100704.63;;;24.49
53512;BMP280;39392;52.832;13.816;2023-07-31T04:41:16;100714.13;;;24.46
53512;BMP280;39392;52.832;13.816;2023-07-31T04:43:43;100715.78;;;24.47
53512;BMP280;39392;52.832;13.816;2023-07-31T04:46:09;100714.72;;;24.48
53512;BMP280;39392;52.832;13.816;2023-07-31T04:48:36;100713.69;;;24.43
53512;BMP280;39392;52.832;13.816;2023-07-31T04:51:02;100717.50;;;24.42
53512;BMP280;39392;52.832;13.816;2023-07-31T04:53:29;100713.50;;;24.38
53512;BMP280;39392;52.832;13.816;2023-07-31T04:55:56;100714.72;;;24.35
53512;BMP280;39392;52.832;13.816;2023-07-31T04:58:22;100724.19;;;24.32
53512;BMP280;39392;52.832;13.816;2023-07-31T05:00:49;100721.88;;;24.36
53512;BMP280;39392;52.832;13.816;2023-07-31T05:03:15;100716.25;;;24.38
53512;BMP280;39392;52.832;13.816;2023-07-31T05:05:42;100718.13;;;24.44
53512;BMP280;39392;52.832;13.816;2023-07-31T05:08:09;100712.03;;;24.42
53512;BMP280;39392;52.832;13.816;2023-07-31T05:10:36;100713.69;;;24.43
53512;BMP280;39392;52.832;13.816;2023-07-31T05:13:02;100701.44;;;24.45
53512;BMP280;39392;52.832;13.816;2023-07-31T05:15:29;100697.88;;;24.45
53512;BMP280;39392;52.832;13.816;2023-07-31T05:17:55;100697.88;;;24.45
53512;BMP280;39392;52.832;13.816;2023-07-31T05:20:22;100699.78;;;24.44
53512;BMP280;39392;52.832;13.816;2023-07-31T05:22:48;100698.09;;;24.43
53512;BMP280;39392;52.832;13.816;2023-07-31T05:25:15;100706.53;;;24.42
53512;BMP280;39392;52.832;13.816;2023-07-31T05:27:41;100699.81;;;24.38
53512;BMP280;39392;52.832;13.816;2023-07-31T05:30:08;100702.09;;;24.34
53512;BMP280;39392;52.832;13.816;2023-07-31T05:32:34;100680.38;;;24.32
53512;BMP280;39392;52.832;13.816;2023-07-31T05:35:01;100693.03;;;24.33
53512;BMP280;39392;52.832;13.816;2023-07-31T05:37:27;100693.69;;;24.29
53512;BMP280;39392;52.832;13.816;2023-07-31T05:39:54;100689.44;;;24.26
53512;BMP280;39392;52.832;13.816;2023-07-31T05:42:20;100690.28;;;24.27
53512;BMP280;39392;52.832;13.816;2023-07-31T05:44:47;100691.56;;;24.31
53512;BMP280;39392;52.832;13.816;2023-07-31T05:47:13;100682.72;;;24.29
53512;BMP280;39392;52.832;13.816;2023-07-31T05:49:40;100685.66;;;24.27
53512;BMP280;39392;52.832;13.816;2023-07-31T05:52:07;100689.88;;;24.23
53512;BMP280;39392;52.832;13.816;2023-07-31T05:54:33;100685.03;;;24.19
53512;BMP280;39392;52.832;13.816;2023-07-31T05:57:00;100683.56;;;24.16
53512;BMP280;39392;52.832;13.816;2023-07-31T05:59:26;100687.34;;;24.15
53512;BMP280;39392;52.832;13.816;2023-07-31T06:01:53;100693.06;;;24.14
53512;BMP280;39392;52.832;13.816;2023-07-31T06:04:19;100688.63;;;24.13
53512;BMP280;39392;52.832;13.816;2023-07-31T06:06:50;100694.72;;;24.15
53512;BMP280;39392;52.832;13.816;2023-07-31T06:09:17;100701.03;;;24.15
53512;BMP280;39392;52.832;13.816;2023-07-31T06:11:43;100701.47;;;24.19
53512;BMP280;39392;52.832;13.816;2023-07-31T06:14:10;100696.41;;;24.22
53512;BMP280;39392;52.832;13.816;2023-07-31T06:16:37;100700.63;;;24.18
53512;BMP280;39392;52.832;13.816;2023-07-31T06:19:04;100700.00;;;24.16
53512;BMP280;39392;52.832;13.816;2023-07-31T06:21:30;100702.09;;;24.21
53512;BMP280;39392;52.832;13.816;2023-07-31T06:23:57;100698.72;;;24.25
53512;BMP280;39392;52.832;13.816;2023-07-31T06:26:24;100694.94;;;24.26
53512;BMP280;39392;52.832;13.816;2023-07-31T06:28:50;100699.34;;;24.27
53512;BMP280;39392;52.832;13.816;2023-07-31T06:31:17;100695.78;;;24.27
53512;BMP280;39392;52.832;13.816;2023-07-31T06:33:46;100698.72;;;24.25
53512;BMP280;39392;52.832;13.816;2023-07-31T06:36:13;100697.66;;;24.26
53512;BMP280;39392;52.832;13.816;2023-07-31T06:38:40;100695.56;;;24.22
53512;BMP280;39392;52.832;13.816;2023-07-31T06:41:06;100702.53;;;24.18
53512;BMP280;39392;52.832;13.816;2023-07-31T06:43:33;100693.25;;;24.19
53512;BMP280;39392;52.832;13.816;2023-07-31T06:46:04;100689.03;;;24.23
53512;BMP280;39392;52.832;13.816;2023-07-31T06:48:30;100690.94;;;24.22
53512;BMP280;39392;52.832;13.816;2023-07-31T06:50:57;100683.97;;;24.26
53512;BMP280;39392;52.832;13.816;2023-07-31T06:53:23;100679.97;;;24.29
53512;BMP280;39392;52.832;13.816;2023-07-31T06:55:50;100683.75;;;24.28
53512;BMP280;39392;52.832;13.816;2023-07-31T06:58:18;100679.97;;;24.29
53512;BMP280;39392;52.832;13.816;2023-07-31T07:00:44;100674.28;;;24.30
53512;BMP280;39392;52.832;13.816;2023-07-31T07:03:11;100663.75;;;24.34
53512;BMP280;39392;52.832;13.816;2023-07-31T07:05:41;100673.41;;;24.36
53512;BMP280;39392;52.832;13.816;2023-07-31T07:08:08;100672.81;;;24.34
53512;BMP280;39392;52.832;13.816;2023-07-31T07:10:38;100677.44;;;24.34
53512;BMP280;39392;52.832;13.816;2023-07-31T07:13:07;100669.84;;;24.36
53512;BMP280;39392;52.832;13.816;2023-07-31T07:15:35;100673.25;;;24.38
53512;BMP280;39392;52.832;13.816;2023-07-31T07:18:03;100669.03;;;24.42
53512;BMP280;39392;52.832;13.816;2023-07-31T07:20:30;100663.75;;;24.41
53512;BMP280;39392;52.832;13.816;2023-07-31T07:22:58;100663.56;;;24.42
53512;BMP280;39392;52.832;13.816;2023-07-31T07:25:25;100649.63;;;24.37
53512;BMP280;39392;52.832;13.816;2023-07-31T07:27:53;100663.53;;;24.35
53512;BMP280;39392;52.832;13.816;2023-07-31T07:30:20;100661.63;;;24.36
53512;BMP280;39392;52.832;13.816;2023-07-31T07:32:48;100655.31;;;24.35
53512;BMP280;39392;52.832;13.816;2023-07-31T07:35:15;100653.63;;;24.34
53512;BMP280;39392;52.832;13.816;2023-07-31T07:37:44;100655.09;;;24.37
53512;BMP280;39392;52.832;13.816;2023-07-31T07:40:11;100657.00;;;24.43
53512;BMP280;39392;52.832;13.816;2023-07-31T07:42:39;100648.56;;;24.45
53512;BMP280;39392;52.832;13.816;2023-07-31T07:45:07;100655.53;;;24.47
53512;BMP280;39392;52.832;13.816;2023-07-31T07:47:34;100651.94;;;24.47
53512;BMP280;39392;52.832;13.816;2023-07-31T07:50:02;100642.88;;;24.46
53512;BMP280;39392;52.832;13.816;2023-07-31T07:52:30;100644.16;;;24.50
53512;BMP280;39392;52.832;13.816;2023-07-31T07:54:57;100648.56;;;24.51
53512;BMP280;39392;52.832;13.816;2023-07-31T07:57:24;100647.31;;;24.54
53512;BMP280;39392;52.832;13.816;2023-07-31T07:59:50;100642.00;;;24.52
53512;BMP280;39392;52.832;13.816;2023-07-31T08:02:17;100641.41;;;24.50
53512;BMP280;39392;52.832;13.816;2023-07-31T08:04:47;100639.50;;;24.51
53512;BMP280;39392;52.832;13.816;2023-07-31T08:07:13;100639.06;;;24.54
53512;BMP280;39392;52.832;13.816;2023-07-31T08:09:43;100650.88;;;24.54
53512;BMP280;39392;52.832;13.816;2023-07-31T08:12:09;100640.94;;;24.53
53512;BMP280;39392;52.832;13.816;2023-07-31T08:14:36;100642.84;;;24.53
53512;BMP280;39392;52.832;13.816;2023-07-31T08:17:03;100643.50;;;24.55
53512;BMP280;39392;52.832;13.816;2023-07-31T08:19:29;100636.13;;;24.55
53512;BMP280;39392;52.832;13.816;2023-07-31T08:21:56;100637.78;;;24.56
53512;BMP280;39392;52.832;13.816;2023-07-31T08:24:23;100629.56;;;24.56
53512;BMP280;39392;52.832;13.816;2023-07-31T08:26:50;100629.38;;;24.58
53512;BMP280;39392;52.832;13.816;2023-07-31T08:29:16;100623.66;;;24.59
53512;BMP280;39392;52.832;13.816;2023-07-31T08:31:43;100624.72;;;24.58
53512;BMP280;39392;52.832;13.816;2023-07-31T08:34:10;100624.50;;;24.60
53512;BMP280;39392;52.832;13.816;2023-07-31T08:36:36;100618.59;;;24.56
53512;BMP280;39392;52.832;13.816;2023-07-31T08:39:03;100622.84;;;24.52
53512;BMP280;39392;52.832;13.816;2023-07-31T08:41:30;100627.06;;;24.55
53512;BMP280;39392;52.832;13.816;2023-07-31T08:43:56;100624.31;;;24.55
53512;BMP280;39392;52.832;13.816;2023-07-31T08:46:24;100618.19;;;24.59
53512;BMP280;39392;52.832;13.816;2023-07-31T08:48:51;100623.91;;;24.58
53512;BMP280;39392;52.832;13.816;2023-07-31T08:51:19;100609.13;;;24.59
53512;BMP280;39392;52.832;13.816;2023-07-31T08:53:46;100607.84;;;24.62
53512;BMP280;39392;52.832;13.816;2023-07-31T08:56:12;100606.81;;;24.63
53512;BMP280;39392;52.832;13.816;2023-07-31T08:58:39;100605.94;;;24.62
53512;BMP280;39392;52.832;13.816;2023-07-31T09:01:06;100599.00;;;24.59
53512;BMP280;39392;52.832;13.816;2023-07-31T09:03:33;100605.94;;;24.62
53512;BMP280;39392;52.832;13.816;2023-07-31T09:06:02;100607.63;;;24.63
53512;BMP280;39392;52.832;13.816;2023-07-31T09:08:30;100605.72;;;24.64
53512;BMP280;39392;52.832;13.816;2023-07-31T09:11:01;100603.00;;;24.64
53512;BMP280;39392;52.832;13.816;2023-07-31T09:13:29;100603.00;;;24.64
53512;BMP280;39392;52.832;13.816;2023-07-31T09:15:56;100607.41;;;24.65
53512;BMP280;39392;52.832;13.816;2023-07-31T09:21:21;100609.72;;;24.61
53512;BMP280;39392;52.832;13.816;2023-07-31T09:23:50;100612.47;;;24.61
53512;BMP280;39392;52.832;13.816;2023-07-31T09:26:33;100608.66;;;24.62
53512;BMP280;39392;52.832;13.816;2023-07-31T09:29:01;100607.00;;;24.61
53512;BMP280;39392;52.832;13.816;2023-07-31T09:31:31;100594.38;;;24.60
53512;BMP280;39392;52.832;13.816;2023-07-31T09:33:58;100600.44;;;24.62
53512;BMP280;39392;52.832;13.816;2023-07-31T09:36:25;100605.50;;;24.65
53512;BMP280;39392;52.832;13.816;2023-07-31T09:38:51;100606.34;;;24.66
53512;BMP280;39392;52.832;13.816;2023-07-31T09:41:18;100604.66;;;24.65
53512;BMP280;39392;52.832;13.816;2023-07-31T09:43:52;100602.75;;;24.65
53512;BMP280;39392;52.832;13.816;2023-07-31T09:46:19;100603.00;;;24.64
53512;BMP280;39392;52.832;13.816;2023-07-31T09:48:46;100601.94;;;24.65
53512;BMP280;39392;52.832;13.816;2023-07-31T09:51:13;100602.75;;;24.65
53512;BMP280;39392;52.832;13.816;2023-07-31T09:53:39;100600.03;;;24.65
53512;BMP280;39392;52.832;13.816;2023-07-31T09:56:06;100594.53;;;24.65
53512;BMP280;39392;52.832;13.816;2023-07-31T09:58:34;100595.38;;;24.66
53512;BMP280;39392;52.832;13.816;2023-07-31T10:01:01;100589.69;;;24.67
53512;BMP280;39392;52.832;13.816;2023-07-31T10:03:28;100586.97;;;24.67
53512;BMP280;39392;52.832;13.816;2023-07-31T10:05:56;100583.38;;;24.67
53512;BMP280;39392;52.832;13.816;2023-07-31T10:08:23;100579.56;;;24.68
53512;BMP280;39392;52.832;13.816;2023-07-31T10:10:53;100581.25;;;24.69
53512;BMP280;39392;52.832;13.816;2023-07-31T10:13:19;100582.09;;;24.69
53512;BMP280;39392;52.832;13.816;2023-07-31T10:15:48;100581.88;;;24.71
53512;BMP280;39392;52.832;13.816;2023-07-31T10:18:15;100579.16;;;24.71
53512;BMP280;39392;52.832;13.816;2023-07-31T10:20:42;100581.03;;;24.70
53512;BMP280;39392;52.832;13.816;2023-07-31T10:23:09;100582.31;;;24.68
53512;BMP280;39392;52.832;13.816;2023-07-31T10:25:37;100572.19;;;24.68
53512;BMP280;39392;52.832;13.816;2023-07-31T10:28:03;100578.75;;;24.67
53512;BMP280;39392;52.832;13.816;2023-07-31T10:30:30;100581.47;;;24.67
53512;BMP280;39392;52.832;13.816;2023-07-31T10:32:58;100572.41;;;24.67
53512;BMP280;39392;52.832;13.816;2023-07-31T10:35:25;100575.16;;;24.67
53512;BMP280;39392;52.832;13.816;2023-07-31T10:37:52;100573.47;;;24.66
53512;BMP280;39392;52.832;13.816;2023-07-31T10:40:19;100571.56;;;24.66
53512;BMP280;39392;52.832;13.816;2023-07-31T10:42:53;100569.69;;;24.67
53512;BMP280;39392;52.832;13.816;2023-07-31T10:45:24;100571.56;;;24.66
53512;BMP280;39392;52.832;13.816;2023-07-31T10:48:00;100571.56;;;24.66
53512;BMP280;39392;52.832;13.816;2023-07-31T10:50:27;100573.69;;;24.64
53512;BMP280;39392;52.832;13.816;2023-07-31T10:52:55;100560.59;;;24.66
53512;BMP280;39392;52.832;13.816;2023-07-31T10:57:56;100559.56;;;24.67
53512;BMP280;39392;52.832;13.816;2023-07-31T11:00:27;100549.44;;;24.68
53512;BMP280;39392;52.832;13.816;2023-07-31T11:08:24;100559.56;;;24.67
53512;BMP280;39392;52.832;13.816;2023-07-31T11:11:05;100549.44;;;24.68
53512;BMP280;39392;52.832;13.816;2023-07-31T11:13:33;100556.34;;;24.70
53512;BMP280;39392;52.832;13.816;2023-07-31T11:16:00;100550.28;;;24.68
53512;BMP280;39392;52.832;13.816;2023-07-31T11:18:27;100553.63;;;24.70
53512;BMP280;39392;52.832;13.816;2023-07-31T11:20:53;100549.19;;;24.69
53512;BMP280;39392;52.832;13.816;2023-07-31T11:23:21;100548.59;;;24.67
53512;BMP280;39392;52.832;13.816;2023-07-31T11:25:48;100544.16;;;24.66
53512;BMP280;39392;52.832;13.816;2023-07-31T11:28:15;100548.59;;;24.67
53512;BMP280;39392;52.832;13.816;2023-07-31T11:30:42;100535.72;;;24.68
53512;BMP280;39392;52.832;13.816;2023-07-31T11:33:10;100530.03;;;24.69
53512;BMP280;39392;52.832;13.816;2023-07-31T11:38:11;100540.78;;;24.71
53512;BMP280;39392;52.832;13.816;2023-07-31T11:40:41;100538.88;;;24.71
53512;BMP280;39392;52.832;13.816;2023-07-31T11:43:08;100533.41;;;24.71
53512;BMP280;39392;52.832;13.816;2023-07-31T11:45:35;100532.31;;;24.72
53512;BMP280;39392;52.832;13.816;2023-07-31T11:48:01;100534.00;;;24.73
53512;BMP280;39392;52.832;13.816;2023-07-31T11:50:29;100536.75;;;24.73
53512;BMP280;39392;52.832;13.816;2023-07-31T11:53:00;100519.47;;;24.73
53512;BMP280;39392;52.832;13.816;2023-07-31T11:55:28;100521.13;;;24.74
53512;BMP280;39392;52.832;13.816;2023-07-31T11:57:56;100512.91;;;24.74
53512;BMP280;39392;52.832;13.816;2023-07-31T12:00:23;100506.41;;;24.75
53512;BMP280;39392;52.832;13.816;2023-07-31T12:02:50;100509.97;;;24.75
53512;BMP280;39392;52.832;13.816;2023-07-31T12:05:17;100491.63;;;24.76
53512;BMP280;39392;52.832;13.816;2023-07-31T12:10:21;100503.44;;;24.76
53512;BMP280;39392;52.832;13.816;2023-07-31T12:12:55;100496.66;;;24.79
53512;BMP280;39392;52.832;13.816;2023-07-31T12:15:21;100494.78;;;24.79
53512;BMP280;39392;52.832;13.816;2023-07-31T12:17:48;100484.66;;;24.80
53512;BMP280;39392;52.832;13.816;2023-07-31T12:20:14;100484.66;;;24.80
53512;BMP280;39392;52.832;13.816;2023-07-31T12:22:41;100480.00;;;24.80
53512;BMP280;39392;52.832;13.816;2023-07-31T12:25:08;100486.31;;;24.81
53512;BMP280;39392;52.832;13.816;2023-07-31T12:27:44;100482.50;;;24.82
53512;BMP280;39392;52.832;13.816;2023-07-31T12:30:29;100472.59;;;24.81
53512;BMP280;39392;52.832;13.816;2023-07-31T12:32:56;100467.97;;;24.81
53512;BMP280;39392;52.832;13.816;2023-07-31T12:35:22;100471.53;;;24.82
53512;BMP280;39392;52.832;13.816;2023-07-31T12:37:49;100469.63;;;24.82
53512;BMP280;39392;52.832;13.816;2023-07-31T12:40:15;100456.56;;;24.84
53512;BMP280;39392;52.832;13.816;2023-07-31T12:42:49;100458.47;;;24.84
53512;BMP280;39392;52.832;13.816;2023-07-31T12:45:15;100460.38;;;24.83
53512;BMP280;39392;52.832;13.816;2023-07-31T12:47:42;100465.84;;;24.83
53512;BMP280;39392;52.832;13.816;2023-07-31T12:50:08;100472.19;;;24.84
53512;BMP280;39392;52.832;13.816;2023-07-31T12:52:35;100472.19;;;24.84
53512;BMP280;39392;52.832;13.816;2023-07-31T12:55:01;100474.91;;;24.84
53512;BMP280;39392;52.832;13.816;2023-07-31T12:57:28;100481.22;;;24.84
53512;BMP280;39392;52.832;13.816;2023-07-31T12:59:54;100482.06;;;24.85
53512;BMP280;39392;52.832;13.816;2023-07-31T13:02:21;100471.09;;;24.85
53512;BMP280;39392;52.832;13.816;2023-07-31T13:04:51;100464.78;;;24.84
53512;BMP280;39392;52.832;13.816;2023-07-31T13:07:18;100455.72;;;24.84
53512;BMP280;39392;52.832;13.816;2023-07-31T13:09:44;100457.41;;;24.85
53512;BMP280;39392;52.832;13.816;2023-07-31T13:12:11;100454.66;;;24.85
53512;BMP280;39392;52.832;13.816;2023-07-31T13:14:37;100453.00;;;24.84
53512;BMP280;39392;52.832;13.816;2023-07-31T13:17:03;100459.50;;;24.83
53512;BMP280;39392;52.832;13.816;2023-07-31T13:19:30;100464.56;;;24.86
53512;BMP280;39392;52.832;13.816;2023-07-31T13:21:56;100460.97;;;24.85
53512;BMP280;39392;52.832;13.816;2023-07-31T13:24:23;100463.72;;;24.85
53512;BMP280;39392;52.832;13.816;2023-07-31T13:26:49;100463.72;;;24.85
53512;BMP280;39392;52.832;13.816;2023-07-31T13:29:16;100461.63;;;24.88
53512;BMP280;39392;52.832;13.816;2023-07-31T13:31:42;100452.53;;;24.87
53512;BMP280;39392;52.832;13.816;2023-07-31T13:34:09;100447.91;;;24.88
53512;BMP280;39392;52.832;13.816;2023-07-31T13:36:35;100445.38;;;24.86
53512;BMP280;39392;52.832;13.816;2023-07-31T13:39:04;100441.78;;;24.85
53512;BMP280;39392;52.832;13.816;2023-07-31T13:41:30;100444.28;;;24.87
53512;BMP280;39392;52.832;13.816;2023-07-31T13:43:57;100440.13;;;24.84
53512;BMP280;39392;52.832;13.816;2023-07-31T13:46:23;100438.22;;;24.85
53512;BMP280;39392;52.832;13.816;2023-07-31T13:48:50;100440.13;;;24.84
53512;BMP280;39392;52.832;13.816;2023-07-31T13:51:17;100432.97;;;24.83
53512;BMP280;39392;52.832;13.816;2023-07-31T13:53:43;100427.47;;;24.83
53512;BMP280;39392;52.832;13.816;2023-07-31T13:56:09;100429.34;;;24.83
53512;BMP280;39392;52.832;13.816;2023-07-31T13:58:36;100422.84;;;24.84
53512;BMP280;39392;52.832;13.816;2023-07-31T14:01:03;100433.81;;;24.84
53512;BMP280;39392;52.832;13.816;2023-07-31T14:03:30;100438.44;;;24.83
53512;BMP280;39392;52.832;13.816;2023-07-31T14:05:56;100437.56;;;24.83